Time;durP1;ratioP1;P1;durP2;ratioP2;P2;SDS_P1;SDS_P2;PMS_P1;PMS_P2;Temp;Humidity;BMP_temperature;BMP_pressure;BME280_temperature;BME280_humidity;BME280_pressure;Samples;Min_cycle;Max_cycle;Signal;HPM_P1;HPM_P2
2021/01/03 00:01:14;;;;;;;42.70;22.38;;;4.30;99.90;;;;;;4964934;28;20207;-79
2021/01/03 00:03:41;;;;;;;51.35;24.05;;;4.30;99.90;;;;;;4953274;28;20228;-79
2021/01/03 00:06:08;;;;;;;47.92;24.55;;;4.40;99.90;;;;;;4946907;29;20524;-79
2021/01/03 00:08:34;;;;;;;45.00;24.33;;;4.40;99.90;;;;;;4948809;29;20184;-80
2021/01/03 00:11:00;;;;;;;45.63;23.00;;;4.40;99.90;;;;;;4944339;28;20646;-79
2021/01/03 00:13:26;;;;;;;44.60;24.67;;;4.30;99.90;;;;;;4935983;29;20234;-80
2021/01/03 00:15:52;;;;;;;54.23;24.53;;;4.30;99.90;;;;;;4935686;29;20437;-80
2021/01/03 00:18:18;;;;;;;49.33;23.80;;;4.30;99.90;;;;;;4940713;28;21083;-80
2021/01/03 00:20:44;;;;;;;54.27;27.90;;;4.30;99.90;;;;;;4938464;29;20428;-79
2021/01/03 00:23:10;;;;;;;50.65;24.85;;;4.30;99.90;;;;;;4938305;29;20475;-80
2021/01/03 00:25:38;;;;;;;48.30;24.02;;;4.20;99.90;;;;;;4968304;28;20247;-80
2021/01/03 00:28:04;;;;;;;56.63;24.47;;;4.30;99.90;;;;;;4953483;29;20259;-80
2021/01/03 00:30:30;;;;;;;47.25;24.80;;;4.20;99.90;;;;;;4938713;29;20440;-80
2021/01/03 00:32:57;;;;;;;48.47;25.07;;;4.20;99.90;;;;;;4969497;28;20622;-80
2021/01/03 00:35:33;;;;;;;45.53;24.50;;;4.40;99.90;;;;;;4948432;29;20595;-80
2021/01/03 00:38:03;;;;;;;53.22;26.55;;;4.20;99.90;;;;;;4957339;28;20625;-79
2021/01/03 00:40:32;;;;;;;53.13;25.13;;;4.20;99.90;;;;;;4972877;28;20527;-79
2021/01/03 00:42:59;;;;;;;53.42;26.67;;;4.30;99.90;;;;;;4936432;29;20230;-80
2021/01/03 00:45:27;;;;;;;45.17;25.50;;;4.20;99.90;;;;;;4938774;29;20204;-80
2021/01/03 00:47:57;;;;;;;48.42;25.73;;;4.30;99.90;;;;;;4940089;29;20235;-80
2021/01/03 00:50:25;;;;;;;54.10;26.00;;;4.30;99.90;;;;;;4939297;28;20713;-79
2021/01/03 00:52:51;;;;;;;53.80;27.23;;;4.30;99.90;;;;;;4937975;29;20223;-80
2021/01/03 00:55:17;;;;;;;44.30;25.40;;;4.40;99.90;;;;;;4953450;29;20562;-80
2021/01/03 00:57:45;;;;;;;42.65;22.52;;;4.30;99.90;;;;;;4968412;28;20518;-80
2021/01/03 01:00:18;;;;;;;51.05;25.25;;;4.30;99.90;;;;;;4938264;29;20355;-80
2021/01/03 01:02:44;;;;;;;50.80;25.65;;;4.60;99.90;;;;;;4946175;29;20180;-80
2021/01/03 01:05:19;;;;;;;53.23;26.43;;;4.30;99.90;;;;;;4948628;29;20185;-80
2021/01/03 01:07:47;;;;;;;50.22;26.73;;;4.40;99.90;;;;;;4943501;29;20779;-80
2021/01/03 01:10:21;;;;;;;53.30;26.85;;;4.50;99.90;;;;;;4921806;29;20220;-80
2021/01/03 01:12:50;;;;;;;50.47;25.88;;;4.40;99.90;;;;;;4938571;29;20191;-80
2021/01/03 01:15:18;;;;;;;54.88;25.70;;;4.40;99.90;;;;;;4952802;29;20189;-80
2021/01/03 01:17:49;;;;;;;52.33;27.25;;;4.40;99.90;;;;;;4952997;28;20200;-80
2021/01/03 01:20:22;;;;;;;52.28;25.85;;;4.50;99.90;;;;;;4935402;29;20549;-80
2021/01/03 01:22:48;;;;;;;58.75;28.27;;;4.40;99.90;;;;;;4952851;28;20196;-80
2021/01/03 01:25:17;;;;;;;52.85;28.63;;;4.40;99.90;;;;;;4933247;29;20195;-80
2021/01/03 01:27:45;;;;;;;49.67;24.77;;;4.40;99.90;;;;;;4949712;28;20224;-79
2021/01/03 01:30:13;;;;;;;49.08;26.95;;;4.50;99.90;;;;;;4937455;29;20637;-80
2021/01/03 01:32:42;;;;;;;53.15;27.63;;;4.30;99.90;;;;;;4937607;29;20689;-79
2021/01/03 01:35:12;;;;;;;52.70;27.17;;;4.40;99.90;;;;;;4969127;28;20265;-80
2021/01/03 01:37:38;;;;;;;48.13;26.85;;;4.40;99.90;;;;;;4935766;29;20221;-79
2021/01/03 01:40:09;;;;;;;52.53;26.02;;;4.50;99.90;;;;;;4941064;29;20254;-80
2021/01/03 01:42:35;;;;;;;53.85;26.13;;;4.50;99.90;;;;;;4936280;28;20193;-79
2021/01/03 01:45:02;;;;;;;48.97;25.97;;;4.70;99.90;;;;;;4950036;29;20664;-79
2021/01/03 01:47:36;;;;;;;54.80;28.02;;;4.50;99.90;;;;;;4929572;29;20428;-79
2021/01/03 01:50:05;;;;;;;51.45;25.48;;;4.50;99.90;;;;;;4927603;29;20201;-80
2021/01/03 01:52:35;;;;;;;53.05;26.05;;;4.50;99.90;;;;;;4936078;29;20298;-80
2021/01/03 01:55:08;;;;;;;50.60;26.85;;;4.50;99.90;;;;;;4968892;28;20192;-79
2021/01/03 01:58:13;;;;;;;53.38;25.17;;;4.50;99.90;;;;;;4927338;29;20583;-80
2021/01/03 02:00:43;;;;;;;48.50;25.67;;;4.50;99.90;;;;;;4951275;29;20192;-79
2021/01/03 02:03:18;;;;;;;49.78;26.38;;;4.50;99.90;;;;;;4920040;29;20185;-79
2021/01/03 02:05:54;;;;;;;52.17;27.75;;;4.50;99.90;;;;;;4934379;29;20195;-79
2021/01/03 02:08:39;;;;;;;48.42;26.95;;;4.60;99.90;;;;;;4968114;28;20193;-80
2021/01/03 02:11:08;;;;;;;64.70;35.03;;;4.50;99.90;;;;;;4951528;28;20433;-80
2021/01/03 02:13:44;;;;;;;56.42;29.45;;;4.50;99.90;;;;;;4927989;29;20270;-79
2021/01/03 02:16:20;;;;;;;50.83;27.67;;;4.70;99.90;;;;;;4949734;29;20296;-80
2021/01/03 02:18:48;;;;;;;52.58;27.52;;;4.60;99.90;;;;;;4930599;29;20223;-79
2021/01/03 02:21:36;;;;;;;52.80;26.40;;;4.60;99.90;;;;;;4956656;28;20573;-80
2021/01/03 02:24:08;;;;;;;57.60;27.58;;;4.60;99.90;;;;;;4940128;29;20632;-80
2021/01/03 02:26:39;;;;;;;45.20;24.30;;;4.60;99.90;;;;;;4936668;28;20225;-80
2021/01/03 02:29:10;;;;;;;51.08;26.00;;;4.60;99.90;;;;;;4923033;29;20193;-79
2021/01/03 02:31:41;;;;;;;49.33;27.50;;;4.60;99.90;;;;;;4918154;29;20577;-80
2021/01/03 02:34:10;;;;;;;50.63;27.23;;;4.70;99.90;;;;;;4918208;29;20185;-80
2021/01/03 02:36:50;;;;;;;53.85;28.83;;;4.60;99.90;;;;;;4934882;29;20267;-80
2021/01/03 02:40:06;;;;;;;50.92;28.08;;;4.70;99.90;;;;;;4964209;28;20217;-80
2021/01/03 02:42:40;;;;;;;50.78;26.90;;;4.70;99.90;;;;;;4983817;28;20187;-79
2021/01/03 02:45:19;;;;;;;44.80;25.60;;;4.50;99.90;;;;;;5008012;28;20217;-93
2021/01/03 02:47:46;;;;;;;52.00;27.42;;;4.60;99.90;;;;;;4994733;28;20190;-93
2021/01/03 02:50:16;;;;;;;54.88;27.13;;;4.80;99.90;;;;;;4994726;28;20187;-92
2021/01/03 02:52:43;;;;;;;48.83;26.27;;;4.60;99.90;;;;;;4987809;28;20212;-94
2021/01/03 02:55:15;;;;;;;51.85;27.65;;;4.60;99.90;;;;;;5014384;28;20269;-94
2021/01/03 02:57:42;;;;;;;50.75;28.67;;;4.70;99.90;;;;;;5014178;28;20222;-94
2021/01/03 03:00:19;;;;;;;58.28;28.50;;;4.60;99.90;;;;;;4982287;28;20218;-93
2021/01/03 03:02:48;;;;;;;50.47;27.70;;;4.60;99.90;;;;;;5014111;28;20280;-93
2021/01/03 03:05:15;;;;;;;51.90;30.38;;;4.50;99.90;;;;;;5014152;28;20340;-93
2021/01/03 03:07:41;;;;;;;51.33;28.65;;;4.50;99.90;;;;;;5014004;28;20221;-93
2021/01/03 03:10:10;;;;;;;50.63;27.10;;;4.50;99.90;;;;;;5014015;28;20272;-93
2021/01/03 03:12:36;;;;;;;50.97;28.40;;;4.40;99.90;;;;;;4973081;28;20444;-92
2021/01/03 03:15:10;;;;;;;54.92;29.60;;;4.50;99.90;;;;;;4937935;28;20492;-93
2021/01/03 03:17:38;;;;;;;52.33;28.35;;;4.70;99.90;;;;;;4938315;28;20195;-92
2021/01/03 03:20:10;;;;;;;51.60;28.35;;;4.50;99.90;;;;;;4968478;28;20642;-92
2021/01/03 03:22:36;;;;;;;56.88;29.05;;;4.60;99.90;;;;;;4953459;28;20193;-92
2021/01/03 03:25:06;;;;;;;56.28;27.58;;;4.60;99.90;;;;;;4938475;29;20188;-92
2021/01/03 03:27:35;;;;;;;48.47;28.10;;;4.50;99.90;;;;;;4937373;29;20232;-92
2021/01/03 03:30:06;;;;;;;52.58;27.17;;;4.50;99.90;;;;;;4953547;29;20208;-91
2021/01/03 03:32:38;;;;;;;46.53;27.35;;;4.50;99.90;;;;;;4938092;28;20573;-92
2021/01/03 03:35:05;;;;;;;50.42;28.65;;;4.50;99.90;;;;;;4953167;29;20191;-92
2021/01/03 03:37:31;;;;;;;55.30;28.65;;;4.50;99.90;;;;;;4969312;28;20184;-92
2021/01/03 03:39:57;;;;;;;51.87;28.30;;;4.40;99.90;;;;;;4937677;29;20294;-92
2021/01/03 03:42:22;;;;;;;48.20;27.43;;;4.60;99.90;;;;;;4952953;28;20471;-93
2021/01/03 03:44:51;;;;;;;55.63;26.50;;;4.40;99.90;;;;;;4937204;29;20412;-94
2021/01/03 03:47:17;;;;;;;58.78;28.38;;;4.40;99.90;;;;;;4952923;29;20896;-94
2021/01/03 03:49:45;;;;;;;50.05;28.00;;;4.00;99.90;;;;;;4938240;29;20274;-93
2021/01/03 03:52:11;;;;;;;45.77;27.10;;;4.40;99.90;;;;;;4937676;28;20235;-92
2021/01/03 03:54:37;;;;;;;45.83;24.60;;;4.40;99.90;;;;;;4956412;28;20901;-92
2021/01/03 03:57:08;;;;;;;47.97;26.97;;;4.50;99.90;;;;;;4941556;28;20432;-92
2021/01/03 03:59:38;;;;;;;48.28;26.63;;;4.50;99.90;;;;;;4956407;29;20779;-93
2021/01/03 04:02:06;;;;;;;46.60;25.95;;;4.50;99.90;;;;;;4922552;29;20169;-93
2021/01/03 04:04:33;;;;;;;46.78;24.10;;;4.50;99.90;;;;;;4922843;29;20185;-93
2021/01/03 04:06:58;;;;;;;43.08;24.75;;;4.60;99.90;;;;;;4922525;29;20264;-94
2021/01/03 04:09:26;;;;;;;45.40;25.05;;;4.50;99.90;;;;;;4953328;29;20189;-94
2021/01/03 04:11:52;;;;;;;42.70;24.10;;;4.50;99.90;;;;;;4935853;29;20533;-91
2021/01/03 04:14:21;;;;;;;49.23;25.60;;;4.50;99.90;;;;;;4944132;29;20510;-91
2021/01/03 04:16:48;;;;;;;43.22;23.92;;;4.60;99.90;;;;;;4922783;29;20437;-92
2021/01/03 04:19:15;;;;;;;39.33;23.23;;;4.40;99.90;;;;;;4922094;29;20677;-92
2021/01/03 04:21:41;;;;;;;44.13;24.25;;;4.50;99.90;;;;;;4937434;29;20189;-92
2021/01/03 04:24:09;;;;;;;46.80;24.15;;;4.50;99.90;;;;;;4921645;29;20189;-92
2021/01/03 04:26:35;;;;;;;47.38;26.17;;;4.50;99.90;;;;;;4946069;29;20238;-92
2021/01/03 04:29:03;;;;;;;47.65;28.23;;;4.10;99.90;;;;;;4955407;29;20421;-92
2021/01/03 04:31:29;;;;;;;38.90;24.17;;;4.30;99.90;;;;;;4924515;29;20220;-91
2021/01/03 04:33:55;;;;;;;46.63;24.87;;;4.80;99.90;;;;;;4956358;28;20514;-92
2021/01/03 04:36:24;;;;;;;39.57;24.50;;;4.60;99.90;;;;;;4956217;28;20511;-92
2021/01/03 04:38:52;;;;;;;44.78;25.33;;;4.50;99.90;;;;;;4940204;28;20468;-91
2021/01/03 04:41:25;;;;;;;40.50;23.38;;;4.50;99.90;;;;;;4940289;29;20184;-91
2021/01/03 04:43:59;;;;;;;46.17;25.15;;;4.60;99.90;;;;;;4941095;29;20201;-91
2021/01/03 04:46:34;;;;;;;45.42;24.10;;;4.50;99.90;;;;;;4940910;29;20515;-92
2021/01/03 04:49:02;;;;;;;47.45;24.02;;;4.60;99.90;;;;;;4941176;29;20188;-92
2021/01/03 04:51:39;;;;;;;41.35;23.40;;;4.50;99.90;;;;;;4956353;29;20195;-93
2021/01/03 04:54:18;;;;;;;39.85;21.65;;;4.50;99.90;;;;;;4955947;29;20227;-93
2021/01/03 04:56:54;;;;;;;42.33;23.23;;;4.60;99.90;;;;;;4955635;29;20181;-93
2021/01/03 04:59:42;;;;;;;38.55;21.83;;;4.50;99.90;;;;;;4940574;29;20275;-93
2021/01/03 05:02:35;;;;;;;36.85;23.38;;;4.50;99.90;;;;;;4939653;29;20224;-94
2021/01/03 05:05:01;;;;;;;44.55;23.70;;;4.60;99.90;;;;;;4949313;28;20196;-93
2021/01/03 05:07:34;;;;;;;36.93;20.33;;;4.50;99.90;;;;;;4936454;29;20185;-92
2021/01/03 05:10:15;;;;;;;38.67;21.67;;;4.70;99.90;;;;;;4921232;29;20508;-91
2021/01/03 05:13:16;;;;;;;34.97;20.85;;;4.50;99.90;;;;;;4920920;29;20268;-93
2021/01/03 05:15:42;;;;;;;35.67;20.45;;;4.40;99.90;;;;;;4942590;28;20205;-93
2021/01/03 05:18:18;;;;;;;32.15;20.05;;;4.50;99.90;;;;;;4920668;29;20197;-93
2021/01/03 05:20:58;;;;;;;34.97;19.42;;;4.50;99.90;;;;;;4936426;29;20625;-93
2021/01/03 05:23:29;;;;;;;36.08;20.35;;;4.50;99.90;;;;;;4936501;29;20703;-93
2021/01/03 05:25:55;;;;;;;33.75;19.92;;;4.50;99.90;;;;;;4921247;29;20172;-93
2021/01/03 05:28:28;;;;;;;34.15;18.90;;;4.40;99.90;;;;;;4921142;29;20203;-93
2021/01/03 05:31:21;;;;;;;34.50;18.17;;;4.50;99.90;;;;;;4936187;29;20615;-94
2021/01/03 05:33:50;;;;;;;29.88;18.67;;;4.50;99.90;;;;;;4921329;29;20232;-93
2021/01/03 05:36:31;;;;;;;34.95;19.38;;;4.60;99.90;;;;;;4926719;29;20183;-93
2021/01/03 05:39:12;;;;;;;38.28;22.50;;;4.50;99.90;;;;;;4970844;28;20212;-93
2021/01/03 05:41:47;;;;;;;31.92;18.00;;;4.70;99.90;;;;;;4955025;29;20504;-93
2021/01/03 05:44:14;;;;;;;37.90;20.85;;;4.50;99.90;;;;;;4955210;29;20226;-92
2021/01/03 05:46:45;;;;;;;35.40;19.00;;;4.10;99.90;;;;;;4955357;28;20236;-93
2021/01/03 05:49:22;;;;;;;31.80;17.77;;;4.70;99.90;;;;;;4939650;29;20198;-94
2021/01/03 05:52:13;;;;;;;35.20;19.05;;;4.50;99.90;;;;;;4940209;29;20200;-93
2021/01/03 05:54:40;;;;;;;35.05;19.38;;;4.50;99.90;;;;;;4939123;29;20252;-94
2021/01/03 05:57:18;;;;;;;32.97;19.70;;;4.50;99.90;;;;;;4938788;29;20185;-93
2021/01/03 05:59:47;;;;;;;36.65;21.08;;;4.50;99.90;;;;;;4954854;29;20243;-91
2021/01/03 06:02:21;;;;;;;33.85;19.65;;;4.50;99.90;;;;;;4939614;29;20184;-93
2021/01/03 06:04:47;;;;;;;28.70;17.10;;;4.50;99.90;;;;;;4939758;28;20266;-93
2021/01/03 06:07:27;;;;;;;31.35;18.35;;;4.50;99.90;;;;;;4939553;29;20200;-91
2021/01/03 06:09:53;;;;;;;30.30;18.98;;;4.50;99.90;;;;;;4939336;28;20191;-92
2021/01/03 06:12:21;;;;;;;28.45;16.77;;;4.50;99.90;;;;;;4947283;29;20201;-92
2021/01/03 06:14:56;;;;;;;29.20;18.45;;;4.30;99.90;;;;;;4954785;28;20243;-93
2021/01/03 06:17:38;;;;;;;31.15;17.85;;;4.60;99.90;;;;;;4939086;29;20260;-92
2021/01/03 06:20:24;;;;;;;25.73;16.33;;;4.60;99.90;;;;;;4938955;29;20230;-91
2021/01/03 06:22:53;;;;;;;25.38;16.02;;;4.60;99.90;;;;;;4954371;29;20181;-91
2021/01/03 06:25:35;;;;;;;28.02;16.67;;;4.20;99.90;;;;;;4938081;29;20615;-90
2021/01/03 06:28:16;;;;;;;26.48;16.40;;;4.40;99.90;;;;;;4954172;29;20283;-90
2021/01/03 06:31:09;;;;;;;24.50;14.70;;;4.40;99.90;;;;;;4954829;29;20199;-92
2021/01/03 06:34:14;;;;;;;25.20;15.48;;;4.30;99.90;;;;;;4957471;29;20176;-92
2021/01/03 06:36:54;;;;;;;21.67;13.43;;;4.50;99.90;;;;;;4943709;29;20211;-91
2021/01/03 06:39:46;;;;;;;24.55;14.32;;;4.40;99.90;;;;;;4943125;29;20219;-92
2021/01/03 06:42:35;;;;;;;24.60;14.63;;;4.30;99.90;;;;;;4932523;29;20201;-91
2021/01/03 06:45:36;;;;;;;24.08;15.70;;;4.30;99.90;;;;;;4920052;29;20177;-92
2021/01/03 06:48:29;;;;;;;24.50;13.70;;;4.30;99.90;;;;;;4918169;29;20192;-91
2021/01/03 06:51:25;;;;;;;24.52;14.85;;;4.20;99.90;;;;;;4919734;29;20268;-92
2021/01/03 06:54:09;;;;;;;23.83;13.95;;;4.30;99.90;;;;;;4944632;29;20180;-91
2021/01/03 06:57:13;;;;;;;21.48;13.30;;;4.30;99.90;;;;;;4938815;29;20582;-91
2021/01/03 06:59:56;;;;;;;22.05;13.23;;;4.20;99.90;;;;;;4953583;29;20219;-92
2021/01/03 07:02:23;;;;;;;21.67;13.45;;;4.30;99.90;;;;;;4938490;29;20169;-93
2021/01/03 07:04:49;;;;;;;20.02;12.25;;;4.20;99.90;;;;;;4938269;29;20188;-93
2021/01/03 07:07:23;;;;;;;18.85;13.40;;;4.50;99.90;;;;;;4938340;29;20195;-91
2021/01/03 07:10:19;;;;;;;22.05;12.45;;;4.20;99.90;;;;;;4938733;29;20177;-91
2021/01/03 07:12:48;;;;;;;18.83;13.18;;;4.30;99.90;;;;;;4953622;29;20196;-92
2021/01/03 07:15:33;;;;;;;23.77;13.55;;;4.30;99.90;;;;;;4953480;29;20197;-92
2021/01/03 07:18:26;;;;;;;19.00;12.10;;;4.30;99.90;;;;;;4934487;28;20201;-91
2021/01/03 07:20:58;;;;;;;20.27;11.52;;;4.20;99.90;;;;;;4934181;29;20230;-90
2021/01/03 07:23:35;;;;;;;18.20;10.88;;;4.30;99.90;;;;;;4919314;29;20181;-91
2021/01/03 07:26:32;;;;;;;19.55;12.45;;;4.30;99.90;;;;;;4918915;29;20221;-91
2021/01/03 07:29:20;;;;;;;15.35;10.68;;;4.20;99.90;;;;;;4918538;29;20185;-92
2021/01/03 07:32:04;;;;;;;19.85;12.30;;;4.20;99.90;;;;;;4945760;29;20196;-90
2021/01/03 07:34:34;;;;;;;18.58;12.23;;;4.30;99.90;;;;;;4938458;28;20181;-92
2021/01/03 07:37:12;;;;;;;16.85;11.07;;;4.20;99.90;;;;;;4926871;29;20191;-91
2021/01/03 07:39:58;;;;;;;17.25;11.93;;;4.30;99.90;;;;;;4918113;29;20625;-91
2021/01/03 07:42:27;;;;;;;19.30;10.63;;;4.50;99.90;;;;;;4929377;29;20641;-91
2021/01/03 07:44:55;;;;;;;18.10;11.55;;;4.40;99.90;;;;;;4922260;29;20531;-92
2021/01/03 07:47:44;;;;;;;17.42;11.07;;;4.30;99.90;;;;;;4954596;29;20280;-93
2021/01/03 07:50:34;;;;;;;14.00;10.73;;;4.50;99.90;;;;;;4971276;28;20636;-93
2021/01/03 07:53:26;;;;;;;17.88;11.15;;;4.50;99.90;;;;;;4938549;28;20698;-91
2021/01/03 07:55:53;;;;;;;16.65;10.70;;;4.40;99.90;;;;;;4947332;29;20524;-92
2021/01/03 07:58:24;;;;;;;14.60;9.77;;;4.40;99.90;;;;;;4922794;29;20195;-92
2021/01/03 08:00:54;;;;;;;18.20;11.30;;;4.50;99.90;;;;;;4938242;29;20177;-92
2021/01/03 08:03:24;;;;;;;15.10;10.27;;;4.50;99.90;;;;;;4937818;29;20197;-92
2021/01/03 08:06:05;;;;;;;13.90;9.63;;;4.50;99.90;;;;;;4937884;29;20209;-92
2021/01/03 08:08:36;;;;;;;17.90;11.82;;;4.40;99.90;;;;;;4939474;29;20247;-92
2021/01/03 08:11:31;;;;;;;14.82;10.10;;;4.50;99.90;;;;;;4941155;28;20188;-91
2021/01/03 08:14:07;;;;;;;14.88;10.70;;;4.60;99.90;;;;;;4973180;28;20188;-91
2021/01/03 08:16:39;;;;;;;14.73;10.60;;;4.30;99.90;;;;;;4942227;29;20189;-92
2021/01/03 08:19:09;;;;;;;11.35;8.25;;;4.40;99.90;;;;;;4920816;29;20275;-92
2021/01/03 08:21:38;;;;;;;14.00;9.75;;;4.50;99.90;;;;;;4933597;29;20213;-92
2021/01/03 08:24:08;;;;;;;12.30;9.73;;;4.40;99.90;;;;;;4924371;29;20267;-92
2021/01/03 08:26:48;;;;;;;12.57;9.48;;;4.60;99.90;;;;;;4937273;29;20228;-91
2021/01/03 08:29:36;;;;;;;16.13;9.90;;;4.50;99.90;;;;;;4953295;29;20511;-92
2021/01/03 08:32:10;;;;;;;11.68;8.60;;;4.40;99.90;;;;;;4937751;29;20191;-92
2021/01/03 08:34:39;;;;;;;14.95;8.60;;;4.60;99.90;;;;;;4937633;29;20210;-92
2021/01/03 08:37:40;;;;;;;11.07;8.80;;;4.30;99.90;;;;;;4937852;29;20200;-92
2021/01/03 08:40:36;;;;;;;12.25;8.93;;;4.30;99.90;;;;;;4954841;28;20220;-91
2021/01/03 08:43:20;;;;;;;11.23;8.95;;;4.30;99.90;;;;;;4924333;29;20197;-92
2021/01/03 08:45:50;;;;;;;11.65;9.30;;;4.40;99.90;;;;;;4936358;29;20181;-93
2021/01/03 08:48:23;;;;;;;10.00;8.57;;;4.30;99.90;;;;;;4940730;29;20617;-91
2021/01/03 08:51:00;;;;;;;10.20;8.40;;;4.50;99.90;;;;;;4941321;28;20195;-91
2021/01/03 08:53:26;;;;;;;10.48;8.70;;;4.40;99.90;;;;;;4940789;29;20183;-91
2021/01/03 08:56:20;;;;;;;12.93;9.45;;;4.30;99.90;;;;;;4955817;29;20207;-90
2021/01/03 08:58:46;;;;;;;11.45;9.00;;;4.30;99.90;;;;;;4939742;29;20205;-93
2021/01/03 09:01:38;;;;;;;11.65;8.63;;;4.30;99.90;;;;;;4940077;29;20560;-92
2021/01/03 09:04:09;;;;;;;9.55;8.50;;;4.30;99.90;;;;;;4941269;29;20235;-92
2021/01/03 09:06:38;;;;;;;10.02;8.43;;;4.50;99.90;;;;;;4940744;29;20173;-91
2021/01/03 09:09:32;;;;;;;12.30;8.70;;;4.50;99.90;;;;;;4924144;29;20196;-91
2021/01/03 09:12:05;;;;;;;10.35;7.72;;;4.80;99.90;;;;;;4928120;29;20621;-92
2021/01/03 09:14:50;;;;;;;9.00;8.00;;;4.60;99.90;;;;;;4940417;29;20621;-91
2021/01/03 09:17:20;;;;;;;10.32;7.88;;;4.60;99.90;;;;;;4941516;29;20188;-92
2021/01/03 09:19:58;;;;;;;8.75;7.70;;;4.60;99.90;;;;;;4952036;28;20233;-91
2021/01/03 09:22:32;;;;;;;10.85;9.07;;;4.60;99.90;;;;;;4921265;29;20186;-91
2021/01/03 09:25:20;;;;;;;9.55;7.10;;;4.60;99.90;;;;;;4921068;29;20190;-91
2021/01/03 09:27:58;;;;;;;9.85;7.20;;;4.60;99.90;;;;;;4929961;28;20320;-92
2021/01/03 09:30:36;;;;;;;11.88;7.25;;;4.50;99.90;;;;;;4951509;29;20249;-91
2021/01/03 09:33:19;;;;;;;9.38;7.05;;;4.60;99.90;;;;;;4921042;29;20193;-91
2021/01/03 09:36:13;;;;;;;8.57;7.68;;;4.70;99.90;;;;;;4921058;29;20189;-91
2021/01/03 09:38:41;;;;;;;8.00;7.20;;;4.40;99.90;;;;;;4951184;29;20287;-92
2021/01/03 09:41:29;;;;;;;8.07;6.43;;;4.40;99.90;;;;;;4921629;29;20181;-91
2021/01/03 09:44:21;;;;;;;7.22;6.53;;;4.40;99.90;;;;;;4940184;29;20428;-91
2021/01/03 09:47:00;;;;;;;8.77;6.35;;;4.40;99.90;;;;;;4939917;29;20236;-91
2021/01/03 09:49:43;;;;;;;8.35;7.38;;;4.70;99.90;;;;;;4939529;29;20316;-91
2021/01/03 09:52:33;;;;;;;6.70;6.00;;;4.50;99.90;;;;;;4923024;29;20220;-91
2021/01/03 09:55:19;;;;;;;7.28;6.15;;;4.50;99.90;;;;;;4936779;29;20260;-91
2021/01/03 09:57:54;;;;;;;7.68;6.47;;;4.60;99.90;;;;;;4920472;29;20256;-90
2021/01/03 10:00:48;;;;;;;7.35;6.40;;;4.50;99.90;;;;;;4920360;29;20311;-91
2021/01/03 10:03:39;;;;;;;6.97;6.22;;;4.50;99.90;;;;;;4951374;29;20642;-90
2021/01/03 10:06:19;;;;;;;7.55;6.45;;;4.60;99.90;;;;;;4951360;29;20192;-88
2021/01/03 10:08:48;;;;;;;7.30;6.55;;;4.40;99.90;;;;;;4934565;29;20184;-89
2021/01/03 10:11:30;;;;;;;9.40;6.85;;;4.40;99.90;;;;;;4940957;29;20267;-93
2021/01/03 10:14:02;;;;;;;7.10;6.00;;;4.60;99.90;;;;;;4958382;28;20231;-91
2021/01/03 10:16:32;;;;;;;6.93;6.20;;;4.40;99.90;;;;;;4950417;28;20189;-91
2021/01/03 10:19:18;;;;;;;7.75;5.72;;;4.60;99.90;;;;;;4939292;29;20217;-92
2021/01/03 10:21:47;;;;;;;7.22;5.65;;;4.70;99.90;;;;;;4929450;29;20177;-90
2021/01/03 10:24:13;;;;;;;8.60;7.10;;;4.60;99.90;;;;;;4939211;29;20184;-91
2021/01/03 10:26:42;;;;;;;9.20;7.37;;;4.40;99.90;;;;;;4938161;29;20299;-91
2021/01/03 10:29:08;;;;;;;9.48;7.40;;;4.60;99.90;;;;;;4938767;29;20432;-92
2021/01/03 10:31:46;;;;;;;9.20;8.30;;;4.70;99.90;;;;;;4954398;29;20221;-90
2021/01/03 10:34:14;;;;;;;11.75;9.20;;;4.80;99.90;;;;;;4938953;29;20499;-91
2021/01/03 10:36:40;;;;;;;11.40;8.20;;;4.70;99.90;;;;;;4953993;29;20189;-92
2021/01/03 10:39:08;;;;;;;10.60;7.70;;;4.60;99.90;;;;;;4938656;29;20279;-91
2021/01/03 10:41:36;;;;;;;10.90;8.07;;;4.90;99.90;;;;;;4942754;29;20823;-91
2021/01/03 10:44:07;;;;;;;10.45;7.55;;;4.70;99.90;;;;;;4944600;28;20200;-90
2021/01/03 10:46:34;;;;;;;12.10;8.75;;;4.70;99.90;;;;;;4939615;29;20188;-91
2021/01/03 10:49:00;;;;;;;7.57;6.78;;;4.70;99.90;;;;;;4938638;28;20184;-92
2021/01/03 10:51:34;;;;;;;9.30;8.27;;;4.60;99.90;;;;;;4971316;28;20530;-90
2021/01/03 10:54:14;;;;;;;8.02;7.22;;;4.60;99.90;;;;;;4940814;28;20861;-91
2021/01/03 10:56:45;;;;;;;7.30;6.57;;;4.70;99.90;;;;;;4937835;29;20291;-89
2021/01/03 10:59:11;;;;;;;6.78;6.03;;;4.70;99.90;;;;;;4938871;29;20204;-89
2021/01/03 11:01:40;;;;;;;9.82;7.32;;;4.60;99.90;;;;;;4938363;28;20212;-90
2021/01/03 11:04:07;;;;;;;7.93;6.88;;;4.60;99.90;;;;;;4937550;29;20204;-91
2021/01/03 11:06:44;;;;;;;5.75;5.18;;;4.60;99.90;;;;;;4969417;28;20258;-92
2021/01/03 11:09:22;;;;;;;6.55;5.95;;;4.60;99.90;;;;;;4938443;29;20186;-91
2021/01/03 11:11:48;;;;;;;10.65;7.90;;;4.60;99.90;;;;;;4938775;29;20188;-92
2021/01/03 11:14:15;;;;;;;8.70;6.70;;;4.70;99.90;;;;;;4938157;29;20188;-92
2021/01/03 11:16:45;;;;;;;7.55;6.35;;;4.70;99.90;;;;;;4938341;29;20195;-91
2021/01/03 11:19:14;;;;;;;7.47;6.38;;;4.70;99.90;;;;;;4936995;29;20207;-92
2021/01/03 11:21:43;;;;;;;7.43;6.03;;;4.70;99.90;;;;;;4938356;29;20629;-91
2021/01/03 11:24:12;;;;;;;9.00;7.20;;;4.80;99.90;;;;;;4953644;29;20180;-91
2021/01/03 11:26:42;;;;;;;7.72;7.03;;;4.80;99.90;;;;;;4938149;28;20234;-91
2021/01/03 11:29:15;;;;;;;7.20;6.47;;;4.80;99.90;;;;;;4953644;29;20188;-91
2021/01/03 11:31:46;;;;;;;7.38;6.30;;;4.80;99.90;;;;;;4938210;29;20198;-92
2021/01/03 11:34:41;;;;;;;9.07;8.05;;;4.40;99.90;;;;;;4937930;28;20195;-92
2021/01/03 11:37:11;;;;;;;7.50;6.70;;;4.60;99.90;;;;;;4938129;29;20180;-91
2021/01/03 11:39:38;;;;;;;6.50;5.55;;;4.60;99.90;;;;;;4938523;29;20212;-91
2021/01/03 11:42:09;;;;;;;7.50;6.30;;;4.60;99.90;;;;;;4938251;29;20199;-92
2021/01/03 11:44:43;;;;;;;7.55;5.70;;;4.70;99.90;;;;;;4923269;29;20599;-91
2021/01/03 11:47:14;;;;;;;7.15;6.45;;;4.80;99.90;;;;;;4932757;29;20216;-90
2021/01/03 11:52:59;;;;;;;8.77;6.57;;;4.70;99.90;;;;;;4940123;28;20283;-87
2021/01/03 11:55:25;;;;;;;7.35;5.38;;;4.60;99.90;;;;;;4937838;29;20197;-87
2021/01/03 11:57:51;;;;;;;6.70;6.00;;;4.70;99.90;;;;;;4937660;29;20193;-88
2021/01/03 12:00:17;;;;;;;7.30;5.37;;;4.70;99.90;;;;;;4937767;29;20545;-89
2021/01/03 12:02:43;;;;;;;9.18;6.57;;;4.80;99.90;;;;;;4942072;29;20444;-87
2021/01/03 12:05:21;;;;;;;7.05;6.18;;;4.80;99.90;;;;;;4955339;29;20191;-89
2021/01/03 12:07:49;;;;;;;8.32;5.82;;;4.80;99.90;;;;;;4969486;28;20264;-94
2021/01/03 12:10:15;;;;;;;8.77;6.85;;;4.80;99.90;;;;;;4938190;29;20199;-94
2021/01/03 12:12:46;;;;;;;7.32;6.10;;;5.10;99.90;;;;;;4938777;29;20487;-92
2021/01/03 12:15:14;;;;;;;6.88;6.15;;;4.80;99.90;;;;;;4940851;29;20193;-94
2021/01/03 12:17:43;;;;;;;10.57;7.53;;;4.80;99.90;;;;;;4941650;29;20660;-90
2021/01/03 12:20:09;;;;;;;7.43;6.63;;;4.80;99.90;;;;;;4932520;29;20213;-86
2021/01/03 12:22:35;;;;;;;8.18;6.80;;;4.80;99.90;;;;;;4921607;29;20268;-88
2021/01/03 12:25:03;;;;;;;7.03;6.07;;;4.80;99.90;;;;;;4937071;29;20268;-89
2021/01/03 12:27:30;;;;;;;7.93;6.75;;;4.80;99.90;;;;;;4926199;29;20460;-85
2021/01/03 12:30:00;;;;;;;7.55;6.75;;;4.70;99.90;;;;;;4940953;29;20278;-91
2021/01/03 12:32:30;;;;;;;8.00;7.13;;;4.70;99.90;;;;;;4941131;29;20275;-87
2021/01/03 12:34:58;;;;;;;6.88;6.18;;;4.70;99.90;;;;;;4957481;29;20290;-86
2021/01/03 12:37:32;;;;;;;7.45;6.38;;;4.70;99.90;;;;;;4947983;29;20584;-84
2021/01/03 12:39:58;;;;;;;7.30;5.65;;;4.90;99.90;;;;;;4946895;29;20318;-85
2021/01/03 12:42:24;;;;;;;8.20;6.50;;;4.70;99.90;;;;;;4959318;29;20267;-90
2021/01/03 12:44:50;;;;;;;7.43;6.20;;;4.80;99.90;;;;;;4935395;29;20447;-90
2021/01/03 12:47:21;;;;;;;7.30;5.50;;;4.80;99.90;;;;;;4940950;29;20761;-90
2021/01/03 12:49:49;;;;;;;9.18;6.30;;;4.80;99.90;;;;;;4955594;29;20192;-91
2021/01/03 12:52:16;;;;;;;7.60;6.80;;;4.90;99.90;;;;;;4940281;28;20189;-89
2021/01/03 12:54:47;;;;;;;7.70;6.90;;;4.80;99.90;;;;;;4948319;28;20440;-85
2021/01/03 12:57:13;;;;;;;8.50;6.90;;;4.70;99.90;;;;;;4951403;29;20185;-84
2021/01/03 12:59:41;;;;;;;8.40;7.47;;;4.60;99.90;;;;;;4964010;28;20205;-86
2021/01/03 13:02:07;;;;;;;11.30;8.10;;;4.80;99.90;;;;;;4938327;29;20275;-87
2021/01/03 13:04:35;;;;;;;11.13;8.63;;;4.90;99.90;;;;;;4934098;29;20440;-84
2021/01/03 13:07:04;;;;;;;8.55;7.05;;;4.90;99.90;;;;;;4951610;29;20214;-84
2021/01/03 13:09:32;;;;;;;8.25;7.03;;;4.80;99.90;;;;;;4946718;28;20272;-88
2021/01/03 13:12:01;;;;;;;7.97;7.13;;;4.90;99.90;;;;;;4938771;29;20319;-85
2021/01/03 13:14:32;;;;;;;8.48;6.40;;;5.00;99.90;;;;;;4936342;29;20203;-84
2021/01/03 13:16:58;;;;;;;8.57;6.53;;;5.00;99.90;;;;;;4969530;28;20204;-85
2021/01/03 13:19:24;;;;;;;9.73;8.40;;;4.90;99.90;;;;;;4939111;29;20227;-88